Time;durP1;ratioP1;P1;durP2;ratioP2;P2;SDS_P1;SDS_P2;PMS_P1;PMS_P2;Temp;Humidity;BMP_temperature;BMP_pressure;BME280_temperature;BME280_humidity;BME280_pressure;Samples;Min_cycle;Max_cycle;Signal;HPM_P1;HPM_P2
2022/06/01 00:01:57;;;;;;;0.90;0.50;;;13.20;99.90;;;;;;5074010;28;20904;-45
2022/06/01 00:04:24;;;;;;;1.00;0.50;;;13.10;99.90;;;;;;5073671;28;20468;-44
2022/06/01 00:06:52;;;;;;;0.93;0.70;;;12.80;99.90;;;;;;5073948;28;20476;-44
2022/06/01 00:09:18;;;;;;;0.90;0.60;;;12.80;99.90;;;;;;5073579;28;20483;-44
2022/06/01 00:11:45;;;;;;;0.90;0.63;;;12.80;99.90;;;;;;5073862;28;20492;-43
2022/06/01 00:14:13;;;;;;;0.90;0.57;;;12.80;99.90;;;;;;5073671;28;20527;-45
2022/06/01 00:16:42;;;;;;;0.90;0.50;;;12.80;99.90;;;;;;5073661;28;20457;-45
2022/06/01 00:19:09;;;;;;;0.90;0.60;;;13.00;99.90;;;;;;5073437;28;20447;-45
2022/06/01 00:22:11;;;;;;;0.90;0.50;;;13.10;99.90;;;;;;5084229;22;20547;-45
2022/06/01 00:24:23;;;;;;;0.90;0.50;;;13.20;99.90;;;;;;5053352;28;20434;-44
2022/06/01 00:26:51;;;;;;;1.00;0.43;;;13.20;99.90;;;;;;5053304;28;20476;-44
2022/06/01 00:29:18;;;;;;;0.90;0.60;;;13.20;99.90;;;;;;5053291;28;20513;-43
2022/06/01 00:31:46;;;;;;;0.90;0.47;;;13.20;99.90;;;;;;5053519;28;20496;-45
2022/06/01 00:34:13;;;;;;;1.10;0.80;;;13.30;99.90;;;;;;5053313;28;20445;-45
2022/06/01 00:36:40;;;;;;;2.17;0.60;;;13.30;99.90;;;;;;5053358;28;20528;-45
2022/06/01 00:39:07;;;;;;;2.07;0.63;;;13.20;99.90;;;;;;5053198;28;20532;-50
2022/06/01 00:41:35;;;;;;;0.80;0.50;;;13.10;99.90;;;;;;5052484;28;20488;-45
2022/06/01 00:44:01;;;;;;;0.87;0.50;;;13.00;99.90;;;;;;5053175;28;20449;-45
2022/06/01 00:46:30;;;;;;;1.10;0.50;;;12.90;99.90;;;;;;5053433;28;20464;-45
2022/06/01 00:49:02;;;;;;;0.80;0.40;;;12.80;99.90;;;;;;5052864;28;20489;-45
2022/06/01 00:51:30;;;;;;;1.20;0.50;;;12.80;99.90;;;;;;5053116;28;20469;-44
2022/06/01 00:53:58;;;;;;;0.90;0.53;;;12.90;99.90;;;;;;5053016;28;20528;-45
2022/06/01 00:56:31;;;;;;;1.30;0.60;;;13.00;99.90;;;;;;5053009;28;20512;-45
2022/06/01 00:59:01;;;;;;;1.10;0.53;;;13.00;99.90;;;;;;5053082;28;20480;-45
2022/06/01 01:01:29;;;;;;;1.17;0.60;;;12.90;99.90;;;;;;5051872;28;20552;-45
2022/06/01 01:04:00;;;;;;;0.80;0.50;;;12.90;99.90;;;;;;5053159;28;20968;-45
2022/06/01 01:06:29;;;;;;;1.00;0.50;;;12.90;99.90;;;;;;5053006;28;20447;-45
2022/06/01 01:08:56;;;;;;;1.07;0.70;;;12.90;99.90;;;;;;5052366;28;20881;-44
2022/06/01 01:11:28;;;;;;;2.53;0.80;;;12.80;99.90;;;;;;5052853;28;20540;-45
2022/06/01 01:13:57;;;;;;;1.00;0.60;;;12.90;99.90;;;;;;5052504;28;20492;-44
2022/06/01 01:16:25;;;;;;;0.90;0.50;;;12.80;99.90;;;;;;5052405;28;20477;-47
2022/06/01 01:18:54;;;;;;;1.00;0.60;;;12.80;99.90;;;;;;5052690;28;20453;-44
2022/06/01 01:21:28;;;;;;;1.37;0.70;;;12.90;99.90;;;;;;5052185;28;20560;-44
2022/06/01 01:24:04;;;;;;;1.20;0.73;;;12.60;99.90;;;;;;5052420;28;20472;-44
2022/06/01 01:26:35;;;;;;;0.90;0.70;;;11.90;99.90;;;;;;5052497;28;20437;-44
2022/06/01 01:29:09;;;;;;;1.10;0.70;;;11.80;99.90;;;;;;5052302;28;20484;-45
2022/06/01 01:31:36;;;;;;;1.57;1.07;;;11.80;99.90;;;;;;5052345;28;20461;-45
2022/06/01 01:34:03;;;;;;;1.23;0.80;;;11.60;99.90;;;;;;5052762;28;20480;-45
2022/06/01 01:36:35;;;;;;;1.10;0.70;;;11.60;99.90;;;;;;5052299;28;20563;-44
2022/06/01 01:39:07;;;;;;;1.10;0.90;;;11.60;99.90;;;;;;5052116;28;20476;-44
2022/06/01 01:41:40;;;;;;;2.00;0.70;;;11.70;99.90;;;;;;5051938;28;20465;-45
2022/06/01 01:44:11;;;;;;;1.30;1.00;;;11.80;99.90;;;;;;5052375;28;20469;-45
2022/06/01 01:46:39;;;;;;;1.00;0.67;;;12.00;99.90;;;;;;5052204;28;20532;-47
2022/06/01 01:49:06;;;;;;;2.80;0.97;;;12.10;99.90;;;;;;5051871;28;20885;-49
2022/06/01 01:51:34;;;;;;;1.33;0.90;;;12.10;99.90;;;;;;5051843;28;20471;-45
2022/06/01 01:54:01;;;;;;;1.10;0.80;;;12.20;99.90;;;;;;5051722;28;20452;-45
2022/06/01 01:57:03;;;;;;;1.73;0.70;;;12.30;99.90;;;;;;5051700;28;20479;-49
2022/06/01 01:59:41;;;;;;;1.20;0.80;;;12.40;99.90;;;;;;5051935;28;20531;-44
2022/06/01 02:02:14;;;;;;;1.00;0.60;;;12.40;99.90;;;;;;5051538;28;20993;-44
2022/06/01 02:07:42;;;;;;;1.60;0.80;;;12.50;99.90;;;;;;5051727;28;20907;-49
2022/06/01 02:12:51;;;;;;;1.20;0.93;;;12.50;99.90;;;;;;5028432;28;20445;-45
2022/06/01 02:15:27;;;;;;;1.10;0.83;;;12.60;99.90;;;;;;5051512;28;20481;-46
2022/06/01 02:17:59;;;;;;;1.60;0.80;;;12.70;99.90;;;;;;5051715;28;20553;-44
2022/06/01 02:20:30;;;;;;;1.10;0.90;;;12.60;99.90;;;;;;5051316;28;20449;-46
2022/06/01 02:22:58;;;;;;;1.30;1.07;;;12.60;99.90;;;;;;5051828;28;21037;-44
2022/06/01 02:25:25;;;;;;;2.93;1.20;;;12.60;99.90;;;;;;5051381;28;20472;-44
2022/06/01 02:27:57;;;;;;;1.10;0.73;;;12.70;99.90;;;;;;5051247;28;20882;-49
2022/06/01 02:30:27;;;;;;;1.10;0.80;;;12.70;99.90;;;;;;5051131;28;20445;-44
2022/06/01 02:32:55;;;;;;;1.40;0.80;;;12.80;99.90;;;;;;5051357;28;20497;-44
2022/06/01 02:35:25;;;;;;;2.03;0.80;;;12.80;99.90;;;;;;5051229;28;20508;-44
2022/06/01 02:37:56;;;;;;;1.10;0.90;;;12.90;99.90;;;;;;5051177;28;20446;-45
2022/06/01 02:40:26;;;;;;;1.17;0.83;;;12.90;99.90;;;;;;5050913;28;20460;-45
2022/06/01 02:42:54;;;;;;;1.27;0.90;;;13.00;99.90;;;;;;5051134;28;20620;-44
2022/06/01 02:45:25;;;;;;;2.90;1.10;;;13.00;99.90;;;;;;5051380;28;20440;-45
2022/06/01 02:47:54;;;;;;;1.37;1.00;;;13.10;99.90;;;;;;5051181;28;20518;-45
2022/06/01 02:50:24;;;;;;;1.43;0.83;;;13.00;99.90;;;;;;5050895;28;20954;-44
2022/06/01 02:52:51;;;;;;;2.60;1.10;;;13.10;99.90;;;;;;5051093;28;20544;-45
2022/06/01 02:55:20;;;;;;;1.47;0.90;;;13.10;99.90;;;;;;5051226;28;20560;-45
2022/06/01 02:57:49;;;;;;;1.20;1.00;;;13.20;99.90;;;;;;5051051;28;20952;-44
2022/06/01 03:00:19;;;;;;;1.00;0.80;;;13.20;99.90;;;;;;5050861;28;20451;-45
2022/06/01 03:02:48;;;;;;;1.53;0.83;;;13.20;99.90;;;;;;5050855;28;20499;-45
2022/06/01 03:05:17;;;;;;;1.10;0.90;;;13.20;99.90;;;;;;5051590;28;20455;-45
2022/06/01 03:07:44;;;;;;;1.10;0.90;;;13.20;99.90;;;;;;5051062;28;20445;-44
2022/06/01 03:10:11;;;;;;;1.70;1.30;;;13.20;99.90;;;;;;5050954;28;20441;-44
2022/06/01 03:12:38;;;;;;;1.07;0.87;;;13.20;99.90;;;;;;5051081;28;20461;-45
2022/06/01 03:15:07;;;;;;;1.70;1.07;;;13.30;99.90;;;;;;5050691;28;20531;-45
2022/06/01 03:17:36;;;;;;;1.20;1.00;;;13.10;99.90;;;;;;5050913;28;20440;-45
2022/06/01 03:20:07;;;;;;;1.70;1.20;;;12.70;99.90;;;;;;5050689;28;20441;-45
2022/06/01 03:22:34;;;;;;;1.57;1.00;;;12.50;99.90;;;;;;5050795;28;20850;-46
2022/06/01 03:25:02;;;;;;;1.87;1.43;;;12.30;99.90;;;;;;5053104;28;20441;-49
2022/06/01 03:27:29;;;;;;;1.57;1.17;;;12.30;99.90;;;;;;5054654;28;20528;-45
2022/06/01 03:29:56;;;;;;;1.67;1.10;;;12.30;99.90;;;;;;5054279;28;20469;-50
2022/06/01 03:32:22;;;;;;;1.43;1.13;;;12.40;99.90;;;;;;5054819;28;20544;-44
2022/06/01 03:34:51;;;;;;;1.43;0.87;;;12.60;99.90;;;;;;5054612;28;20476;-44
2022/06/01 03:37:18;;;;;;;1.90;0.77;;;12.70;99.90;;;;;;5054443;28;20883;-44
2022/06/01 03:39:45;;;;;;;1.30;1.10;;;12.80;99.90;;;;;;5053883;28;20532;-45
2022/06/01 03:42:12;;;;;;;3.73;0.90;;;12.80;99.90;;;;;;5054488;28;20461;-44
2022/06/01 03:47:23;;;;;;;1.00;0.70;;;12.60;99.90;;;;;;5054358;28;20768;-44
2022/06/01 03:49:51;;;;;;;1.10;0.80;;;12.70;99.90;;;;;;5053851;28;20965;-45
2022/06/01 03:52:18;;;;;;;1.00;0.70;;;12.70;99.90;;;;;;5054406;28;20548;-44
2022/06/01 03:54:45;;;;;;;1.60;1.00;;;12.70;99.90;;;;;;5054418;28;20440;-44
2022/06/01 03:57:13;;;;;;;1.67;1.10;;;12.60;99.90;;;;;;5054008;28;21016;-44
2022/06/01 03:59:40;;;;;;;1.20;0.87;;;12.70;99.90;;;;;;5054013;28;20776;-46
2022/06/01 04:02:07;;;;;;;0.97;0.70;;;12.80;99.90;;;;;;5053812;28;20551;-44
2022/06/01 04:04:35;;;;;;;1.50;0.80;;;12.80;99.90;;;;;;5053958;28;20441;-45
2022/06/01 04:07:04;;;;;;;2.20;0.60;;;12.70;99.90;;;;;;5053998;28;20465;-49
2022/06/01 04:09:31;;;;;;;2.40;1.00;;;12.80;99.90;;;;;;5053714;28;20473;-45
2022/06/01 04:11:58;;;;;;;1.67;0.60;;;12.60;99.90;;;;;;5053885;28;20496;-46
2022/06/01 04:14:26;;;;;;;1.07;0.87;;;12.40;99.90;;;;;;5054068;28;20540;-44
2022/06/01 04:16:53;;;;;;;1.50;0.90;;;12.50;99.90;;;;;;5053594;28;20509;-46
2022/06/01 04:19:20;;;;;;;2.10;0.80;;;12.60;99.90;;;;;;5053370;28;21005;-44
2022/06/01 04:21:52;;;;;;;1.10;0.70;;;12.60;99.90;;;;;;5053522;28;20544;-44
2022/06/01 04:24:23;;;;;;;0.87;0.50;;;12.60;99.90;;;;;;5053555;28;20488;-44
2022/06/01 04:26:50;;;;;;;1.07;0.60;;;12.60;99.90;;;;;;5053913;28;20445;-45
2022/06/01 04:29:17;;;;;;;1.20;0.80;;;12.70;99.90;;;;;;5053302;28;20957;-44
2022/06/01 04:31:44;;;;;;;0.90;0.70;;;12.70;99.90;;;;;;5053424;28;20504;-47
2022/06/01 04:34:12;;;;;;;1.63;0.60;;;12.70;99.90;;;;;;5053569;28;20448;-44
2022/06/01 04:36:39;;;;;;;2.37;1.67;;;12.60;99.90;;;;;;5053075;28;20517;-44
2022/06/01 04:39:06;;;;;;;1.67;1.13;;;12.40;99.90;;;;;;5053197;28;20579;-46
2022/06/01 04:41:35;;;;;;;2.20;1.40;;;12.30;99.90;;;;;;5052892;28;20472;-44
2022/06/01 04:44:02;;;;;;;1.40;0.70;;;12.40;99.90;;;;;;5053094;28;20480;-47
2022/06/01 04:46:30;;;;;;;1.20;0.60;;;12.50;99.90;;;;;;5053236;28;20528;-44
2022/06/01 04:48:57;;;;;;;4.10;1.50;;;12.50;99.90;;;;;;5053021;28;20446;-44
2022/06/01 04:51:24;;;;;;;1.43;1.20;;;12.50;99.90;;;;;;5053183;28;20587;-44
2022/06/01 04:53:51;;;;;;;1.80;1.30;;;12.60;99.90;;;;;;5052853;28;20460;-47
2022/06/01 04:56:18;;;;;;;1.70;1.60;;;12.50;99.90;;;;;;5052622;28;20473;-44
2022/06/01 04:58:46;;;;;;;1.40;1.10;;;12.50;99.90;;;;;;5052645;28;20481;-45
2022/06/01 05:01:13;;;;;;;1.20;0.80;;;12.40;99.90;;;;;;5053020;28;20895;-45
2022/06/01 05:03:40;;;;;;;1.57;0.70;;;12.40;99.90;;;;;;5052907;28;21005;-44
2022/06/01 05:06:07;;;;;;;1.67;1.00;;;12.50;99.90;;;;;;5052702;28;20524;-43
2022/06/01 05:08:34;;;;;;;1.17;0.70;;;12.50;99.90;;;;;;5052793;28;20531;-46
2022/06/01 05:11:01;;;;;;;1.43;0.43;;;12.50;99.90;;;;;;5052234;28;20469;-46
2022/06/01 05:13:28;;;;;;;2.07;1.87;;;12.60;99.90;;;;;;5052888;28;20473;-44
2022/06/01 05:15:59;;;;;;;1.97;1.77;;;12.60;99.90;;;;;;5052518;28;20437;-44
2022/06/01 05:18:27;;;;;;;1.90;0.70;;;12.60;99.90;;;;;;5052951;28;20440;-44
2022/06/01 05:20:55;;;;;;;1.50;0.83;;;12.50;99.90;;;;;;5052164;28;20441;-44
2022/06/01 05:23:23;;;;;;;4.40;0.80;;;12.40;99.90;;;;;;5052449;28;20459;-45
2022/06/01 05:25:52;;;;;;;1.70;1.10;;;12.10;99.90;;;;;;5052787;28;20525;-45
2022/06/01 05:28:22;;;;;;;1.37;1.10;;;11.90;99.90;;;;;;5052676;28;20447;-44
2022/06/01 05:30:49;;;;;;;1.47;0.70;;;11.80;99.90;;;;;;5052455;28;20445;-46
2022/06/01 05:33:18;;;;;;;1.20;0.70;;;11.70;99.90;;;;;;5052335;28;20447;-45
2022/06/01 05:35:44;;;;;;;1.00;0.70;;;11.70;99.90;;;;;;5052214;28;20517;-44
2022/06/01 05:38:11;;;;;;;1.50;0.93;;;11.80;99.90;;;;;;5052088;28;20492;-45
2022/06/01 05:40:38;;;;;;;1.00;0.83;;;12.00;99.90;;;;;;5052056;28;20448;-45
2022/06/01 05:43:10;;;;;;;1.93;0.70;;;12.10;99.90;;;;;;5051921;28;20444;-44
2022/06/01 05:45:37;;;;;;;1.40;0.80;;;11.90;99.90;;;;;;5052155;28;20437;-45
2022/06/01 05:48:05;;;;;;;1.67;0.83;;;11.90;99.90;;;;;;5051228;28;20961;-45
2022/06/01 05:50:33;;;;;;;3.17;0.90;;;11.90;99.90;;;;;;5051656;28;21064;-44
2022/06/01 05:53:00;;;;;;;1.63;0.90;;;11.90;99.90;;;;;;5052072;28;20556;-48
2022/06/01 05:55:27;;;;;;;1.00;0.60;;;12.10;99.90;;;;;;5052027;28;20442;-44
2022/06/01 05:57:54;;;;;;;1.43;0.70;;;12.10;99.90;;;;;;5051482;28;20556;-45
2022/06/01 06:00:22;;;;;;;1.10;0.70;;;11.90;99.90;;;;;;5050932;28;20445;-46
2022/06/01 06:02:49;;;;;;;1.10;0.60;;;12.00;99.90;;;;;;5051359;28;20465;-46
2022/06/01 06:08:02;;;;;;;0.90;0.60;;;13.70;99.90;;;;;;5052012;28;20424;-45
2022/06/01 06:10:29;;;;;;;2.43;0.60;;;14.80;99.90;;;;;;5051244;28;20492;-44
2022/06/01 06:12:57;;;;;;;1.27;0.80;;;15.70;99.90;;;;;;5051681;28;20461;-45
2022/06/01 06:15:24;;;;;;;1.40;1.20;;;16.20;99.90;;;;;;5051543;28;20506;-49
2022/06/01 06:17:51;;;;;;;2.40;1.00;;;16.40;99.90;;;;;;5051801;28;20519;-45
2022/06/01 06:20:18;;;;;;;1.43;1.00;;;16.40;99.90;;;;;;5051326;28;20469;-44
2022/06/01 06:22:45;;;;;;;1.50;0.80;;;16.40;99.90;;;;;;5138630;22;20511;-45
2022/06/01 06:25:13;;;;;;;1.00;0.60;;;16.20;99.90;;;;;;5091583;28;20978;-44
2022/06/01 06:27:40;;;;;;;1.53;0.73;;;15.90;99.90;;;;;;5091799;28;20473;-43
2022/06/01 06:30:08;;;;;;;1.10;0.80;;;15.70;99.90;;;;;;5091743;28;20517;-47
2022/06/01 06:32:35;;;;;;;1.00;0.50;;;15.70;99.90;;;;;;5091547;28;20494;-44
2022/06/01 06:35:02;;;;;;;1.00;0.50;;;15.30;99.90;;;;;;5091565;28;20467;-44
2022/06/01 06:37:29;;;;;;;1.53;0.60;;;15.00;99.90;;;;;;5091682;28;20471;-43
2022/06/01 06:39:56;;;;;;;0.90;0.53;;;14.90;99.90;;;;;;5091089;28;20475;-43
2022/06/01 06:42:24;;;;;;;1.10;0.60;;;14.90;99.90;;;;;;5091437;28;20495;-44
2022/06/01 06:44:51;;;;;;;1.27;0.93;;;14.90;99.90;;;;;;5091422;28;20841;-44
2022/06/01 06:47:19;;;;;;;2.03;0.50;;;14.90;99.90;;;;;;5091466;28;20476;-44
2022/06/01 06:49:45;;;;;;;2.40;1.50;;;14.80;99.90;;;;;;5091216;28;20439;-44
2022/06/01 06:52:12;;;;;;;1.00;0.60;;;14.70;99.90;;;;;;5091069;28;20555;-45
2022/06/01 06:54:39;;;;;;;1.50;1.00;;;14.70;99.90;;;;;;5091441;28;20475;-44
2022/06/01 06:57:07;;;;;;;1.43;0.77;;;14.70;99.90;;;;;;5091458;28;20567;-47
2022/06/01 06:59:36;;;;;;;1.20;0.60;;;14.70;99.90;;;;;;5094665;28;20479;-43
2022/06/01 07:02:04;;;;;;;1.00;0.57;;;14.70;99.90;;;;;;5095507;28;20463;-45
2022/06/01 07:04:31;;;;;;;2.03;0.70;;;14.80;99.90;;;;;;5095426;28;20928;-46
2022/06/01 07:06:58;;;;;;;1.50;0.70;;;15.00;99.90;;;;;;5095590;28;20531;-44
2022/06/01 07:09:25;;;;;;;1.00;0.60;;;14.70;99.90;;;;;;5095173;28;20526;-43
2022/06/01 07:11:51;;;;;;;0.90;0.50;;;14.50;99.90;;;;;;5095033;28;20998;-44
2022/06/01 07:14:18;;;;;;;1.00;0.60;;;14.40;99.90;;;;;;5095253;28;20524;-44
2022/06/01 07:16:47;;;;;;;0.90;0.60;;;14.50;99.90;;;;;;5095401;28;20507;-45
2022/06/01 07:19:14;;;;;;;1.00;0.70;;;14.80;99.90;;;;;;5094932;28;20463;-44
2022/06/01 07:21:42;;;;;;;3.17;0.77;;;15.00;99.90;;;;;;5094786;28;20983;-44
2022/06/01 07:24:09;;;;;;;0.97;0.70;;;15.30;99.90;;;;;;5095020;28;20454;-44
2022/06/01 07:26:40;;;;;;;1.10;0.73;;;15.60;99.90;;;;;;5095200;28;20534;-44
2022/06/01 07:29:08;;;;;;;1.17;0.70;;;15.80;99.90;;;;;;5094933;28;20874;-44
2022/06/01 07:31:35;;;;;;;1.00;0.57;;;16.20;99.90;;;;;;5094902;28;20499;-45
2022/06/01 07:34:04;;;;;;;2.17;0.60;;;16.40;99.90;;;;;;5094768;28;20964;-44
2022/06/01 07:36:31;;;;;;;1.20;0.60;;;16.70;99.90;;;;;;5094733;28;20471;-44
2022/06/01 07:44:31;;;;;;;1.83;0.70;;;17.50;99.90;;;;;;5094697;28;20435;-44
2022/06/01 07:46:58;;;;;;;1.20;0.80;;;18.00;99.90;;;;;;5094783;28;20466;-45
2022/06/01 07:49:27;;;;;;;2.23;1.10;;;18.40;99.90;;;;;;5094531;28;20858;-44
2022/06/01 07:51:54;;;;;;;1.87;0.70;;;17.80;99.90;;;;;;5094422;28;20471;-46
2022/06/01 07:54:22;;;;;;;0.90;0.50;;;17.90;99.90;;;;;;5094390;28;20939;-44
2022/06/01 07:56:50;;;;;;;2.33;0.80;;;18.20;99.90;;;;;;5094276;28;20566;-43
2022/06/01 07:59:17;;;;;;;1.00;0.53;;;17.90;99.90;;;;;;5094253;28;20475;-44
2022/06/01 08:01:44;;;;;;;1.10;0.70;;;17.70;99.90;;;;;;5094473;28;20542;-44
2022/06/01 08:04:12;;;;;;;1.33;0.80;;;18.00;99.90;;;;;;5094317;28;20440;-44
2022/06/01 08:06:41;;;;;;;1.20;0.73;;;17.80;99.90;;;;;;5094186;28;20535;-44
2022/06/01 08:09:08;;;;;;;1.30;0.70;;;17.80;99.90;;;;;;5094224;28;20446;-44
2022/06/01 08:14:20;;;;;;;1.20;0.60;;;17.90;99.90;;;;;;5094248;28;20423;-44
2022/06/01 08:16:47;;;;;;;1.00;0.60;;;18.10;99.90;;;;;;5094077;28;20875;-44
2022/06/01 08:19:16;;;;;;;1.33;0.90;;;18.30;99.90;;;;;;5093873;28;20443;-44
2022/06/01 08:21:45;;;;;;;1.50;0.70;;;18.20;99.90;;;;;;5093590;28;20499;-44
2022/06/01 08:24:13;;;;;;;1.23;0.60;;;18.40;99.90;;;;;;5094111;28;20803;-44
2022/06/01 08:26:41;;;;;;;1.00;0.60;;;18.40;99.90;;;;;;5093957;28;20446;-44
2022/06/01 08:29:08;;;;;;;1.77;0.73;;;18.30;99.90;;;;;;5093563;28;20471;-44
2022/06/01 08:31:35;;;;;;;1.13;0.70;;;18.20;99.90;;;;;;5093794;28;20491;-44
2022/06/01 08:34:03;;;;;;;1.23;0.73;;;18.30;99.90;;;;;;5093676;28;20472;-44
2022/06/01 08:36:30;;;;;;;1.20;1.00;;;18.10;99.90;;;;;;5093734;28;20445;-44
2022/06/01 08:38:58;;;;;;;2.03;0.77;;;17.90;99.90;;;;;;5093646;28;20540;-44
2022/06/01 08:41:31;;;;;;;1.93;0.90;;;17.80;99.90;;;;;;5093361;28;20495;-44
2022/06/01 08:44:01;;;;;;;1.63;0.90;;;18.00;99.90;;;;;;5093725;28;20436;-44
2022/06/01 08:46:29;;;;;;;1.13;0.87;;;18.00;99.90;;;;;;5093606;28;20478;-44
2022/06/01 08:49:00;;;;;;;1.30;0.93;;;18.10;99.90;;;;;;5093539;28;20440;-43
2022/06/01 08:51:31;;;;;;;1.20;0.80;;;18.10;99.90;;;;;;5093550;28;20464;-44
2022/06/01 08:54:00;;;;;;;1.20;0.87;;;17.90;99.90;;;;;;5093344;28;20463;-45
2022/06/01 08:56:34;;;;;;;1.43;0.90;;;17.90;99.90;;;;;;5093256;28;20859;-44
2022/06/01 08:59:09;;;;;;;2.63;1.10;;;18.10;99.90;;;;;;5093171;28;20515;-44
2022/06/01 09:01:43;;;;;;;1.40;0.90;;;18.20;99.90;;;;;;5093056;28;20991;-44
2022/06/01 09:04:22;;;;;;;1.10;0.70;;;18.30;99.90;;;;;;5093278;28;20868;-46
2022/06/01 09:06:52;;;;;;;1.30;0.80;;;18.40;99.90;;;;;;5092834;28;20448;-44
2022/06/01 09:09:27;;;;;;;1.27;1.00;;;18.70;99.90;;;;;;5092997;28;20970;-44
2022/06/01 09:11:55;;;;;;;1.70;0.90;;;18.90;99.90;;;;;;5092989;28;20455;-44
2022/06/01 09:14:29;;;;;;;1.77;0.67;;;19.10;99.90;;;;;;5092918;28;20475;-43
2022/06/01 09:16:57;;;;;;;1.60;0.90;;;19.10;99.90;;;;;;5092779;28;20869;-45
2022/06/01 09:19:27;;;;;;;2.17;0.80;;;19.00;99.90;;;;;;5092828;28;20940;-44
2022/06/01 09:24:41;;;;;;;1.80;1.03;;;18.90;99.90;;;;;;5092764;28;20545;-44
2022/06/01 09:27:11;;;;;;;1.30;0.60;;;19.00;99.90;;;;;;5092750;28;20450;-44
2022/06/01 09:29:46;;;;;;;1.73;0.80;;;19.30;99.90;;;;;;5092391;28;20443;-44
2022/06/01 09:32:31;;;;;;;1.13;0.73;;;19.50;99.90;;;;;;5092735;28;20493;-43
2022/06/01 09:35:01;;;;;;;0.90;0.53;;;19.50;99.90;;;;;;5092777;28;20467;-44
2022/06/01 09:37:31;;;;;;;1.33;0.70;;;19.50;99.90;;;;;;5092488;28;20468;-44
2022/06/01 09:40:03;;;;;;;1.10;0.63;;;19.40;99.90;;;;;;5092319;28;20538;-48
2022/06/01 09:42:36;;;;;;;1.47;0.90;;;19.60;99.90;;;;;;5092335;28;20546;-43
2022/06/01 09:45:13;;;;;;;2.17;0.70;;;19.70;99.90;;;;;;5092540;28;20496;-45
2022/06/01 09:47:43;;;;;;;1.23;1.03;;;19.70;99.90;;;;;;5092376;28;20467;-44
2022/06/01 09:50:27;;;;;;;1.00;0.70;;;19.70;99.90;;;;;;5091772;28;20963;-45
2022/06/01 09:52:59;;;;;;;1.20;1.00;;;19.80;99.90;;;;;;5092236;28;20483;-45
2022/06/01 09:55:29;;;;;;;1.70;0.90;;;19.80;99.90;;;;;;5092367;28;20443;-44
2022/06/01 09:58:09;;;;;;;1.20;1.00;;;19.80;99.90;;;;;;5092110;28;20479;-45
2022/06/01 10:06:22;;;;;;;1.20;1.00;;;19.90;99.90;;;;;;5092143;28;20922;-44
2022/06/01 10:09:03;;;;;;;3.80;3.40;;;20.00;99.90;;;;;;5091549;28;20441;-44
2022/06/01 10:11:37;;;;;;;1.50;1.40;;;20.10;99.90;;;;;;5091852;28;20490;-44
2022/06/01 10:14:14;;;;;;;1.73;0.90;;;20.20;99.90;;;;;;5092087;28;20447;-44
2022/06/01 10:16:56;;;;;;;6.93;1.30;;;20.20;99.90;;;;;;5091765;28;20508;-44
2022/06/01 10:19:29;;;;;;;1.00;0.70;;;20.20;99.90;;;;;;5091418;28;20534;-48
2022/06/01 10:22:02;;;;;;;1.00;0.60;;;20.20;99.90;;;;;;5091545;28;20555;-44
2022/06/01 10:24:35;;;;;;;1.17;0.90;;;20.20;99.90;;;;;;5091951;28;20439;-44
2022/06/01 10:27:05;;;;;;;1.93;0.80;;;20.30;99.90;;;;;;5091848;28;20510;-44
2022/06/01 10:29:36;;;;;;;1.10;0.87;;;20.30;99.90;;;;;;5091408;28;20526;-45
2022/06/01 10:32:08;;;;;;;1.40;1.10;;;20.40;99.90;;;;;;5091565;28;20463;-44
2022/06/01 10:34:41;;;;;;;1.47;0.80;;;20.50;99.90;;;;;;5091455;28;20449;-44
2022/06/01 10:37:17;;;;;;;1.23;1.00;;;20.50;99.90;;;;;;5091715;28;20447;-46
2022/06/01 10:39:50;;;;;;;1.40;1.10;;;20.60;99.90;;;;;;5091168;28;21002;-44
2022/06/01 10:42:23;;;;;;;1.10;0.77;;;20.70;99.90;;;;;;5091656;28;20460;-45
2022/06/01 10:44:58;;;;;;;1.43;0.90;;;20.70;99.90;;;;;;5091275;28;20875;-44
2022/06/01 10:47:33;;;;;;;1.60;1.20;;;20.80;99.90;;;;;;5091225;28;20439;-45
2022/06/01 10:50:05;;;;;;;1.10;0.70;;;20.70;99.90;;;;;;5090667;28;21142;-45
2022/06/01 10:52:39;;;;;;;1.40;0.93;;;20.80;99.90;;;;;;5090875;28;20498;-44
2022/06/01 10:55:12;;;;;;;1.30;1.10;;;20.80;99.90;;;;;;5090529;28;20474;-44
2022/06/01 10:57:44;;;;;;;1.40;0.90;;;20.90;99.90;;;;;;5090349;28;20450;-44
2022/06/01 11:00:15;;;;;;;1.23;0.93;;;20.90;99.90;;;;;;5090598;28;20478;-46
2022/06/01 11:03:22;;;;;;;1.40;1.10;;;21.00;99.90;;;;;;5090892;28;20503;-45
2022/06/01 11:05:59;;;;;;;1.20;0.80;;;20.90;99.90;;;;;;5091478;28;20437;-45
2022/06/01 11:08:40;;;;;;;1.30;0.90;;;20.90;99.90;;;;;;5091276;28;20556;-45
2022/06/01 11:11:12;;;;;;;1.30;1.10;;;20.90;99.90;;;;;;5090978;28;20479;-45
2022/06/01 11:13:58;;;;;;;1.20;1.00;;;20.90;99.90;;;;;;5091399;28;20530;-45
2022/06/01 11:16:37;;;;;;;1.87;1.03;;;20.90;99.90;;;;;;5091457;28;20458;-45
2022/06/01 11:19:15;;;;;;;1.60;1.13;;;20.90;99.90;;;;;;5090906;28;20475;-45
2022/06/01 11:21:50;;;;;;;1.40;1.20;;;20.80;99.90;;;;;;5091115;28;20498;-44
2022/06/01 11:24:47;;;;;;;1.37;1.03;;;20.80;99.90;;;;;;5091275;28;20439;-48
2022/06/01 11:27:31;;;;;;;1.40;1.00;;;20.80;99.90;;;;;;5090028;28;20546;-45
2022/06/01 11:30:08;;;;;;;1.70;1.10;;;20.80;99.90;;;;;;5091060;28;20467;-44
2022/06/01 11:32:41;;;;;;;2.00;1.27;;;20.80;99.90;;;;;;5091206;28;20454;-44
2022/06/01 11:35:16;;;;;;;2.33;1.40;;;20.90;99.90;;;;;;5091203;28;20530;-45
2022/06/01 11:37:50;;;;;;;1.60;1.23;;;21.00;99.90;;;;;;5090954;28;20866;-44
2022/06/01 11:40:24;;;;;;;1.47;1.10;;;21.00;99.90;;;;;;5090609;28;20530;-44
2022/06/01 11:42:56;;;;;;;1.47;1.10;;;21.00;99.90;;;;;;5090912;28;20805;-46
2022/06/01 11:45:34;;;;;;;1.30;1.10;;;21.10;99.90;;;;;;5092146;28;20439;-45
2022/06/01 11:48:07;;;;;;;3.10;1.30;;;21.10;99.90;;;;;;5094459;28;20529;-44
2022/06/01 11:50:55;;;;;;;1.50;1.17;;;21.20;99.90;;;;;;5094562;28;20525;-45
2022/06/01 11:53:29;;;;;;;1.97;1.03;;;21.20;99.90;;;;;;5094498;28;20487;-45
2022/06/01 11:56:14;;;;;;;1.60;1.40;;;21.20;99.90;;;;;;5094807;28;20443;-44
2022/06/01 11:58:45;;;;;;;1.33;1.03;;;21.30;99.90;;;;;;5094233;28;21062;-45
2022/06/01 12:01:16;;;;;;;1.50;0.93;;;21.30;99.90;;;;;;5094376;28;20447;-45
2022/06/01 12:03:55;;;;;;;1.50;1.10;;;21.30;99.90;;;;;;5094447;28;20466;-44
2022/06/01 12:06:47;;;;;;;1.40;0.80;;;21.40;99.90;;;;;;5094380;28;20440;-44
2022/06/01 12:09:30;;;;;;;1.20;0.90;;;21.50;99.90;;;;;;5094551;28;20478;-46
2022/06/01 12:11:57;;;;;;;1.20;1.10;;;21.60;99.90;;;;;;5094125;28;20987;-44
2022/06/01 12:14:31;;;;;;;1.40;1.20;;;21.50;99.90;;;;;;5094215;28;21015;-45
2022/06/01 12:17:26;;;;;;;1.80;1.07;;;21.40;99.90;;;;;;5094037;28;20469;-45
2022/06/01 12:19:54;;;;;;;1.90;1.33;;;21.50;99.90;;;;;;5093837;28;21010;-44
2022/06/01 12:30:54;;;;;;;1.23;1.13;;;21.90;99.90;;;;;;5073454;28;20839;-44
2022/06/01 12:33:22;;;;;;;1.63;1.13;;;21.80;99.90;;;;;;5073339;28;20467;-49
2022/06/01 12:35:55;;;;;;;1.30;1.03;;;21.70;99.90;;;;;;5073396;28;21023;-46
2022/06/01 12:38:33;;;;;;;4.93;1.17;;;21.70;99.90;;;;;;5073415;28;20515;-47
2022/06/01 12:41:17;;;;;;;2.53;1.57;;;21.70;99.90;;;;;;5073028;28;20452;-44
2022/06/01 12:43:49;;;;;;;1.50;1.30;;;21.60;99.90;;;;;;5073183;28;20555;-49
2022/06/01 12:46:26;;;;;;;1.30;1.07;;;21.60;99.90;;;;;;5073447;28;20808;-45
2022/06/01 12:49:28;;;;;;;1.20;0.90;;;21.60;99.90;;;;;;5073045;28;20440;-44
2022/06/01 12:51:57;;;;;;;1.60;1.23;;;21.60;99.90;;;;;;5073643;28;20491;-45
2022/06/01 12:54:29;;;;;;;2.07;1.07;;;21.70;99.90;;;;;;5073180;28;20535;-44
2022/06/01 12:56:56;;;;;;;1.60;1.00;;;21.70;99.90;;;;;;5073301;28;20479;-45
2022/06/01 12:59:22;;;;;;;1.40;1.00;;;21.70;99.90;;;;;;5072825;28;20480;-49
2022/06/01 13:01:58;;;;;;;2.03;1.20;;;21.60;99.90;;;;;;5072845;28;21008;-44
2022/06/01 13:04:27;;;;;;;1.43;1.07;;;21.70;99.90;;;;;;5072997;28;20455;-46
2022/06/01 13:06:55;;;;;;;1.43;1.30;;;22.10;99.90;;;;;;5072797;28;20483;-44
2022/06/01 13:09:25;;;;;;;1.67;1.43;;;22.20;99.90;;;;;;5073046;28;20511;-45
2022/06/01 13:12:01;;;;;;;1.50;1.17;;;22.10;99.90;;;;;;5072855;28;20517;-43
2022/06/01 13:14:29;;;;;;;2.40;1.50;;;22.10;99.90;;;;;;5073031;28;20458;-45
2022/06/01 13:17:00;;;;;;;1.23;1.10;;;22.00;99.90;;;;;;5072635;28;20444;-45
2022/06/01 13:19:31;;;;;;;1.67;1.17;;;22.00;99.90;;;;;;5072466;28;20478;-44
2022/06/01 13:22:07;;;;;;;1.70;1.53;;;22.00;99.90;;;;;;5072386;28;22156;-44
2022/06/01 13:24:40;;;;;;;1.50;1.30;;;22.00;99.90;;;;;;5072807;28;20527;-49
2022/06/01 13:27:07;;;;;;;1.57;1.30;;;22.00;99.90;;;;;;5072784;28;20440;-45
2022/06/01 13:29:39;;;;;;;1.90;1.17;;;22.10;99.90;;;;;;5072188;28;20464;-44
2022/06/01 13:32:10;;;;;;;3.10;1.33;;;22.00;99.90;;;;;;5072612;28;20960;-44
2022/06/01 13:34:45;;;;;;;2.57;1.43;;;22.00;99.90;;;;;;5072846;28;20444;-44
2022/06/01 13:37:17;;;;;;;2.97;1.30;;;22.00;99.90;;;;;;5072500;28;20479;-44
2022/06/01 13:39:53;;;;;;;5.63;1.57;;;21.90;99.90;;;;;;5071699;28;20531;-44
2022/06/01 13:42:26;;;;;;;1.90;1.33;;;21.90;99.90;;;;;;5072353;28;20972;-44